createdAt,value
2023-03-29T00:00:07.929Z,686.00
2023-03-29T00:00:38.012Z,687.00
2023-03-29T00:01:08.099Z,689.00
2023-03-29T00:01:38.176Z,689.00
2023-03-29T00:02:08.307Z,690.00
2023-03-29T00:02:38.464Z,690.00
2023-03-29T00:03:08.483Z,690.00
2023-03-29T00:03:38.539Z,691.00
2023-03-29T00:04:08.510Z,692.00
2023-03-29T00:04:38.563Z,692.00
2023-03-29T00:05:08.512Z,691.00
2023-03-29T00:05:38.659Z,690.00
2023-03-29T00:06:08.714Z,689.00
2023-03-29T00:06:38.797Z,689.00
2023-03-29T00:07:08.886Z,688.00
2023-03-29T00:07:38.968Z,690.00
2023-03-29T00:08:08.951Z,692.00
2023-03-29T00:08:39.046Z,693.00
2023-03-29T00:09:09.115Z,694.00
2023-03-29T00:09:39.191Z,691.00
2023-03-29T00:10:09.291Z,690.00
2023-03-29T00:10:39.284Z,688.00
2023-03-29T00:11:09.400Z,687.00
2023-03-29T00:11:39.395Z,688.00
2023-03-29T00:12:39.467Z,685.00
2023-03-29T00:13:09.462Z,685.00
2023-03-29T00:14:09.581Z,683.00
2023-03-29T00:14:39.563Z,683.00
2023-03-29T00:15:09.581Z,683.00
2023-03-29T00:16:09.645Z,684.00
2023-03-29T00:16:39.826Z,682.00
2023-03-29T00:17:09.824Z,681.00
2023-03-29T00:17:39.855Z,682.00
2023-03-29T00:18:09.865Z,683.00
2023-03-29T00:18:39.866Z,683.00
2023-03-29T00:19:09.857Z,683.00
2023-03-29T00:20:09.936Z,684.00
2023-03-29T00:20:39.952Z,684.00
2023-03-29T00:21:40.002Z,685.00
2023-03-29T00:22:09.995Z,686.00
2023-03-29T00:23:10.070Z,685.00
2023-03-29T00:23:40.066Z,683.00
2023-03-29T00:24:40.182Z,682.00
2023-03-29T00:25:10.301Z,681.00
2023-03-29T00:25:40.300Z,681.00
2023-03-29T00:26:40.381Z,677.00
2023-03-29T00:27:10.377Z,677.00
2023-03-29T00:27:40.400Z,676.00
2023-03-29T00:28:40.449Z,676.00
2023-03-29T00:29:10.567Z,676.00
2023-03-29T00:29:40.682Z,676.00
2023-03-29T00:30:10.700Z,678.00
2023-03-29T00:31:10.820Z,678.00
2023-03-29T00:31:40.809Z,679.00
2023-03-29T00:32:10.799Z,678.00
2023-03-29T00:33:10.885Z,677.00
2023-03-29T00:33:40.913Z,674.00
2023-03-29T00:34:10.988Z,673.00
2023-03-29T00:34:40.979Z,673.00
2023-03-29T00:35:11.002Z,674.00
2023-03-29T00:35:41.164Z,674.00
2023-03-29T00:36:11.173Z,675.00
2023-03-29T00:36:41.145Z,673.00
2023-03-29T00:37:41.273Z,672.00
2023-03-29T00:38:11.322Z,673.00
2023-03-29T00:38:41.322Z,676.00
2023-03-29T00:39:11.431Z,675.00
2023-03-29T00:39:41.430Z,674.00
2023-03-29T00:40:41.501Z,672.00
2023-03-29T00:41:11.492Z,670.00
2023-03-29T00:42:11.573Z,670.00
2023-03-29T00:42:41.586Z,669.00
2023-03-29T00:43:41.656Z,668.00
2023-03-29T00:44:11.651Z,668.00
2023-03-29T00:44:41.770Z,668.00
2023-03-29T00:45:12.082Z,669.00
2023-03-29T00:45:41.943Z,669.00
2023-03-29T00:46:42.117Z,670.00
2023-03-29T00:47:12.110Z,671.00
2023-03-29T00:47:42.168Z,672.00
2023-03-29T00:48:12.249Z,672.00
2023-03-29T00:48:42.295Z,671.00
2023-03-29T00:49:12.301Z,669.00
2023-03-29T00:49:42.422Z,670.00
2023-03-29T00:50:12.453Z,671.00
2023-03-29T00:50:42.503Z,670.00
2023-03-29T00:51:12.469Z,671.00
2023-03-29T00:51:42.622Z,670.00
2023-03-29T00:52:12.595Z,669.00
2023-03-29T00:52:42.713Z,667.00
2023-03-29T00:53:12.826Z,665.00
2023-03-29T00:53:42.946Z,665.00
2023-03-29T00:54:12.943Z,665.00
2023-03-29T00:54:43.062Z,667.00
2023-03-29T00:55:13.185Z,667.00
2023-03-29T00:55:43.182Z,665.00
2023-03-29T00:56:43.351Z,668.00
2023-03-29T00:57:13.363Z,668.00
2023-03-29T00:57:43.379Z,669.00
2023-03-29T00:58:13.490Z,670.00
2023-03-29T00:58:43.503Z,669.00
2023-03-29T00:59:43.557Z,667.00
2023-03-29T01:00:52.531Z,647.00
2023-03-29T01:01:22.732Z,647.00
2023-03-29T01:01:52.763Z,652.00
2023-03-29T01:02:22.790Z,652.00
2023-03-29T01:02:52.843Z,650.00
2023-03-29T01:03:22.914Z,650.00
2023-03-29T01:03:52.941Z,651.00
2023-03-29T01:04:22.946Z,652.00
2023-03-29T01:04:53.033Z,652.00
2023-03-29T01:05:23.123Z,652.00
2023-03-29T01:05:53.198Z,652.00
2023-03-29T01:06:23.295Z,649.00
2023-03-29T01:06:53.415Z,648.00
2023-03-29T01:07:23.364Z,649.00
2023-03-29T01:07:53.452Z,649.00
2023-03-29T01:08:23.539Z,650.00
2023-03-29T01:08:53.612Z,650.00
2023-03-29T01:09:23.697Z,650.00
2023-03-29T01:09:53.846Z,650.00
2023-03-29T01:10:23.801Z,648.00
2023-03-29T01:11:23.873Z,647.00
2023-03-29T01:11:53.989Z,646.00
2023-03-29T01:12:23.986Z,646.00
2023-03-29T01:13:24.059Z,646.00
2023-03-29T01:13:54.054Z,647.00
2023-03-29T01:14:24.179Z,649.00
2023-03-29T01:14:54.330Z,649.00
2023-03-29T01:15:24.312Z,649.00
2023-03-29T01:15:54.428Z,647.00
2023-03-29T01:16:24.454Z,649.00
2023-03-29T01:17:24.560Z,652.00
2023-03-29T01:17:54.566Z,652.00
2023-03-29T01:18:24.575Z,652.00
2023-03-29T01:18:54.686Z,653.00
2023-03-29T01:19:24.804Z,653.00
2023-03-29T01:19:54.942Z,651.00
2023-03-29T01:20:24.941Z,651.00
2023-03-29T01:21:25.015Z,652.00
2023-03-29T01:21:55.002Z,651.00
2023-03-29T01:22:25.144Z,651.00
2023-03-29T01:22:55.243Z,651.00
2023-03-29T01:23:25.231Z,650.00
2023-03-29T01:23:55.360Z,650.00
2023-03-29T01:24:25.465Z,652.00
2023-03-29T01:24:55.478Z,649.00
2023-03-29T01:25:25.468Z,648.00
2023-03-29T01:26:25.554Z,648.00
2023-03-29T01:26:55.541Z,646.00
2023-03-29T01:27:25.671Z,645.00
2023-03-29T01:27:55.659Z,646.00
2023-03-29T01:28:25.776Z,644.00
2023-03-29T01:28:55.897Z,644.00
2023-03-29T01:29:25.901Z,646.00
2023-03-29T01:29:56.021Z,645.00
2023-03-29T01:30:26.018Z,643.00
2023-03-29T01:30:56.133Z,642.00
2023-03-29T01:31:26.317Z,642.00
2023-03-29T01:31:56.319Z,641.00
2023-03-29T01:32:26.380Z,642.00
2023-03-29T01:32:56.389Z,642.00
2023-03-29T01:33:26.376Z,641.00
2023-03-29T01:33:56.492Z,641.00
2023-03-29T01:34:26.609Z,642.00
2023-03-29T01:34:56.653Z,641.00
2023-03-29T01:35:26.616Z,642.00
2023-03-29T01:35:56.661Z,641.00
2023-03-29T01:36:26.631Z,640.00
2023-03-29T01:36:56.623Z,639.00
2023-03-29T01:37:56.796Z,635.00
2023-03-29T01:38:26.795Z,635.00
2023-03-29T01:38:56.786Z,635.00
2023-03-29T01:39:26.904Z,637.00
2023-03-29T01:39:56.902Z,636.00
2023-03-29T01:40:27.021Z,636.00
2023-03-29T01:40:57.016Z,637.00
2023-03-29T01:41:57.086Z,638.00
2023-03-29T01:42:27.199Z,638.00
2023-03-29T01:42:57.325Z,638.00
2023-03-29T01:43:27.439Z,637.00
2023-03-29T01:43:57.558Z,638.00
2023-03-29T01:44:27.558Z,639.00
2023-03-29T01:44:57.667Z,639.00
2023-03-29T01:45:27.798Z,639.00
2023-03-29T01:45:57.807Z,639.00
2023-03-29T01:46:27.867Z,640.00
2023-03-29T01:46:57.876Z,640.00
2023-03-29T01:47:28.048Z,640.00
2023-03-29T01:47:58.132Z,639.00
2023-03-29T01:48:28.118Z,637.00
2023-03-29T01:48:58.109Z,637.00
2023-03-29T01:49:28.237Z,634.00
2023-03-29T01:49:58.348Z,633.00
2023-03-29T01:50:28.346Z,633.00
2023-03-29T01:50:58.462Z,633.00
2023-03-29T01:51:28.584Z,632.00
2023-03-29T01:51:58.589Z,631.00
2023-03-29T01:52:28.591Z,631.00
2023-03-29T01:52:58.716Z,631.00
2023-03-29T01:53:28.764Z,631.00
2023-03-29T01:53:58.851Z,631.00
2023-03-29T01:54:28.841Z,629.00
2023-03-29T01:55:28.910Z,629.00
2023-03-29T01:55:59.036Z,628.00
2023-03-29T01:56:29.145Z,630.00
2023-03-29T01:56:59.191Z,629.00
2023-03-29T01:57:29.255Z,629.00
2023-03-29T01:57:59.247Z,627.00
2023-03-29T01:58:59.350Z,626.00
2023-03-29T01:59:29.463Z,626.00
2023-03-29T01:59:59.451Z,627.00
2023-03-29T02:00:29.599Z,626.00
2023-03-29T02:00:59.866Z,626.00
2023-03-29T02:01:29.753Z,626.00
2023-03-29T02:02:00.093Z,628.00
2023-03-29T02:02:29.960Z,629.00
2023-03-29T02:03:00.069Z,629.00
2023-03-29T02:03:30.074Z,631.00
2023-03-29T02:04:00.106Z,632.00
2023-03-29T02:04:30.166Z,632.00
2023-03-29T02:05:00.246Z,634.00
2023-03-29T02:05:30.332Z,633.00
2023-03-29T02:06:00.426Z,635.00
2023-03-29T02:06:30.499Z,635.00
2023-03-29T02:07:00.588Z,636.00
2023-03-29T02:07:30.748Z,635.00
2023-03-29T02:08:00.782Z,635.00
2023-03-29T02:08:30.868Z,635.00
2023-03-29T02:09:00.978Z,633.00
2023-03-29T02:09:31.030Z,632.00
2023-03-29T02:10:01.113Z,631.00
2023-03-29T02:10:31.210Z,632.00
2023-03-29T02:11:01.576Z,631.00
2023-03-29T02:11:31.234Z,632.00
2023-03-29T02:12:01.359Z,632.00
2023-03-29T02:12:31.353Z,632.00
2023-03-29T02:13:31.419Z,631.00
2023-03-29T02:14:01.414Z,633.00
2023-03-29T02:14:31.550Z,633.00
2023-03-29T02:15:01.658Z,633.00
2023-03-29T02:15:31.681Z,634.00
2023-03-29T02:16:01.798Z,636.00
2023-03-29T02:16:31.797Z,634.00
2023-03-29T02:17:01.793Z,633.00
2023-03-29T02:18:01.904Z,631.00
2023-03-29T02:18:31.882Z,631.00
2023-03-29T02:19:31.956Z,628.00
2023-03-29T02:20:01.958Z,627.00
2023-03-29T02:20:32.002Z,627.00
2023-03-29T02:21:02.212Z,627.00
2023-03-29T02:21:32.001Z,626.00
2023-03-29T02:22:02.132Z,626.00
2023-03-29T02:22:32.112Z,626.00
2023-03-29T02:23:02.226Z,628.00
2023-03-29T02:23:32.341Z,628.00
2023-03-29T02:24:02.336Z,627.00
2023-03-29T02:24:32.363Z,626.00
2023-03-29T02:25:32.438Z,622.00
2023-03-29T02:26:02.430Z,622.00
2023-03-29T02:27:02.488Z,623.00
2023-03-29T02:27:32.609Z,624.00
2023-03-29T02:28:02.624Z,623.00
2023-03-29T02:29:02.681Z,622.00
2023-03-29T02:29:32.678Z,621.00
2023-03-29T02:30:02.792Z,622.00
2023-03-29T02:30:32.907Z,621.00
2023-03-29T02:31:03.192Z,621.00
2023-03-29T02:31:33.046Z,621.00
2023-03-29T02:32:03.038Z,620.00
2023-03-29T02:32:33.078Z,622.00
2023-03-29T02:33:03.137Z,620.00
2023-03-29T02:33:33.135Z,620.00
2023-03-29T02:34:03.127Z,620.00
2023-03-29T02:34:33.239Z,620.00
2023-03-29T02:35:03.235Z,618.00
2023-03-29T02:35:33.257Z,617.00
2023-03-29T02:36:03.285Z,616.00
2023-03-29T02:36:33.313Z,616.00
2023-03-29T02:37:03.431Z,617.00
2023-03-29T02:37:33.547Z,616.00
2023-03-29T02:38:03.555Z,617.00
2023-03-29T02:38:33.546Z,615.00
2023-03-29T02:39:03.665Z,617.00
2023-03-29T02:39:33.881Z,619.00
2023-03-29T02:40:03.883Z,617.00
2023-03-29T02:40:33.920Z,620.00
2023-03-29T02:41:04.143Z,620.00
2023-03-29T02:41:33.995Z,621.00
2023-03-29T02:42:04.004Z,621.00
2023-03-29T02:42:34.170Z,622.00
2023-03-29T02:43:04.197Z,621.00
2023-03-29T02:43:34.218Z,621.00
2023-03-29T02:44:04.242Z,619.00
2023-03-29T02:44:34.209Z,620.00
2023-03-29T02:45:04.327Z,622.00
2023-03-29T02:45:34.451Z,622.00
2023-03-29T02:46:04.584Z,621.00
2023-03-29T02:46:34.725Z,620.00
2023-03-29T02:47:04.692Z,621.00
2023-03-29T02:47:34.804Z,619.00
2023-03-29T02:48:34.769Z,619.00
2023-03-29T02:49:04.889Z,617.00
2023-03-29T02:49:35.005Z,615.00
2023-03-29T02:50:05.001Z,615.00
2023-03-29T02:50:35.086Z,613.00
2023-03-29T02:51:05.208Z,615.00
2023-03-29T02:51:35.202Z,615.00
2023-03-29T02:52:35.303Z,617.00
2023-03-29T02:53:05.290Z,615.00
2023-03-29T02:53:35.302Z,617.00
2023-03-29T02:54:05.422Z,618.00
2023-03-29T02:54:35.554Z,619.00
2023-03-29T02:55:05.535Z,618.00
2023-03-29T02:55:35.556Z,619.00
2023-03-29T02:56:05.656Z,619.00
2023-03-29T02:56:35.647Z,620.00
2023-03-29T02:57:35.724Z,620.00
2023-03-29T02:58:05.734Z,620.00
2023-03-29T02:59:05.830Z,621.00
2023-03-29T02:59:35.970Z,622.00
2023-03-29T03:00:05.956Z,621.00
2023-03-29T03:00:36.055Z,621.00
2023-03-29T03:01:06.135Z,621.00
2023-03-29T03:01:36.241Z,619.00
2023-03-29T03:02:06.290Z,619.00
2023-03-29T03:02:36.332Z,619.00
2023-03-29T03:03:06.423Z,620.00
2023-03-29T03:03:36.528Z,619.00
2023-03-29T03:04:06.595Z,620.00
2023-03-29T03:04:36.557Z,622.00
2023-03-29T03:05:06.649Z,621.00
2023-03-29T03:05:36.724Z,622.00
2023-03-29T03:06:06.806Z,621.00
2023-03-29T03:06:36.896Z,620.00
2023-03-29T03:07:06.962Z,618.00
2023-03-29T03:07:37.044Z,617.00
2023-03-29T03:08:07.127Z,619.00
2023-03-29T03:08:37.209Z,618.00
2023-03-29T03:09:07.289Z,616.00
2023-03-29T03:09:37.373Z,615.00
2023-03-29T03:10:07.459Z,616.00
2023-03-29T03:10:37.556Z,615.00
2023-03-29T03:11:07.723Z,614.00
2023-03-29T03:11:37.695Z,614.00
2023-03-29T03:12:07.817Z,614.00
2023-03-29T03:12:37.932Z,614.00
2023-03-29T03:13:08.045Z,613.00
2023-03-29T03:13:38.043Z,615.00
2023-03-29T03:14:08.155Z,613.00
2023-03-29T03:14:38.151Z,612.00
2023-03-29T03:15:08.184Z,614.00
2023-03-29T03:15:38.165Z,614.00
2023-03-29T03:16:08.314Z,613.00
2023-03-29T03:16:38.344Z,613.00
2023-03-29T03:17:08.328Z,616.00
2023-03-29T03:17:38.474Z,615.00
2023-03-29T03:18:08.525Z,613.00
2023-03-29T03:18:38.537Z,613.00
2023-03-29T03:19:08.648Z,615.00
2023-03-29T03:19:38.678Z,618.00
2023-03-29T03:20:08.668Z,616.00
2023-03-29T03:20:38.783Z,615.00
2023-03-29T03:21:08.901Z,617.00
2023-03-29T03:21:38.896Z,616.00
2023-03-29T03:22:09.035Z,614.00
2023-03-29T03:22:39.038Z,611.00
2023-03-29T03:23:09.038Z,609.00
2023-03-29T03:24:09.116Z,611.00
2023-03-29T03:24:39.094Z,610.00
2023-03-29T03:25:09.213Z,611.00
2023-03-29T03:25:39.338Z,610.00
2023-03-29T03:26:09.448Z,611.00
2023-03-29T03:26:39.465Z,611.00
2023-03-29T03:27:09.567Z,610.00
2023-03-29T03:27:39.568Z,610.00
2023-03-29T03:28:09.561Z,609.00
2023-03-29T03:28:39.678Z,610.00
2023-03-29T03:29:09.802Z,610.00
2023-03-29T03:29:39.791Z,613.00
2023-03-29T03:30:09.915Z,612.00
2023-03-29T03:30:40.028Z,613.00
2023-03-29T03:31:10.059Z,612.00
2023-03-29T03:31:40.074Z,611.00
2023-03-29T03:32:10.087Z,611.00
2023-03-29T03:32:40.143Z,611.00
2023-03-29T03:33:10.138Z,610.00
2023-03-29T03:33:40.254Z,611.00
2023-03-29T03:34:10.379Z,609.00
2023-03-29T03:34:40.377Z,608.00
2023-03-29T03:35:10.493Z,609.00
2023-03-29T03:35:40.641Z,609.00
2023-03-29T03:36:10.740Z,610.00
2023-03-29T03:36:40.758Z,610.00
2023-03-29T03:37:10.847Z,609.00
2023-03-29T03:37:40.857Z,609.00
2023-03-29T03:38:10.897Z,609.00
2023-03-29T03:38:40.885Z,612.00
2023-03-29T03:39:10.876Z,611.00
2023-03-29T03:40:10.958Z,612.00
2023-03-29T03:40:40.963Z,612.00
2023-03-29T03:41:11.086Z,612.00
2023-03-29T03:41:41.080Z,611.00
2023-03-29T03:42:11.121Z,610.00
2023-03-29T03:42:41.104Z,610.00
2023-03-29T03:43:11.204Z,611.00
2023-03-29T03:43:41.193Z,610.00
2023-03-29T03:44:41.262Z,640.00
2023-03-29T03:45:11.269Z,628.00
2023-03-29T03:45:41.302Z,620.00
2023-03-29T03:46:11.326Z,616.00
2023-03-29T03:46:41.375Z,615.00
2023-03-29T03:47:11.369Z,613.00
2023-03-29T03:47:41.536Z,614.00
2023-03-29T03:48:11.553Z,613.00
2023-03-29T03:48:41.542Z,615.00
2023-03-29T03:49:11.664Z,614.00
2023-03-29T03:49:41.664Z,616.00
2023-03-29T03:50:41.753Z,621.00
2023-03-29T03:51:11.778Z,623.00
2023-03-29T03:51:41.776Z,624.00
2023-03-29T03:52:11.894Z,628.00
2023-03-29T03:52:41.930Z,629.00
2023-03-29T03:53:12.047Z,631.00
2023-03-29T03:53:42.049Z,632.00
2023-03-29T03:54:12.175Z,631.00
2023-03-29T03:54:42.168Z,638.00
2023-03-29T03:55:12.284Z,645.00
2023-03-29T03:55:42.405Z,648.00
2023-03-29T03:56:12.405Z,647.00
2023-03-29T03:57:12.566Z,652.00
2023-03-29T03:57:42.600Z,656.00
2023-03-29T03:58:12.595Z,658.00
2023-03-29T03:58:42.717Z,660.00
2023-03-29T03:59:12.834Z,662.00
2023-03-29T03:59:42.883Z,663.00
2023-03-29T04:00:12.881Z,663.00
2023-03-29T04:00:42.964Z,664.00
2023-03-29T04:01:13.057Z,664.00
2023-03-29T04:01:43.134Z,664.00
2023-03-29T04:02:13.246Z,663.00
2023-03-29T04:02:43.311Z,662.00
2023-03-29T04:03:13.377Z,661.00
2023-03-29T04:03:43.316Z,662.00
2023-03-29T04:04:13.342Z,664.00
2023-03-29T04:04:43.273Z,662.00
2023-03-29T04:05:13.359Z,659.00
2023-03-29T04:05:43.443Z,658.00
2023-03-29T04:06:13.526Z,658.00
2023-03-29T04:06:43.940Z,656.00
2023-03-29T04:07:13.621Z,653.00
2023-03-29T04:07:43.987Z,648.00
2023-03-29T04:08:13.833Z,645.00
2023-03-29T04:09:13.939Z,646.00
2023-03-29T04:09:44.025Z,647.00
2023-03-29T04:10:14.100Z,648.00
2023-03-29T04:10:44.209Z,648.00
2023-03-29T04:11:14.335Z,649.00
2023-03-29T04:11:44.453Z,649.00
2023-03-29T04:12:14.588Z,649.00
2023-03-29T04:12:44.582Z,648.00
2023-03-29T04:13:14.629Z,645.00
2023-03-29T04:13:44.615Z,645.00
2023-03-29T04:14:14.746Z,646.00
2023-03-29T04:14:44.738Z,648.00
2023-03-29T04:15:14.854Z,648.00
2023-03-29T04:15:44.873Z,648.00
2023-03-29T04:16:14.900Z,650.00
2023-03-29T04:16:44.922Z,650.00
2023-03-29T04:17:15.036Z,652.00
2023-03-29T04:17:45.236Z,653.00
2023-03-29T04:18:15.360Z,655.00
2023-03-29T04:18:45.422Z,656.00
2023-03-29T04:19:15.336Z,659.00
2023-03-29T04:19:45.343Z,660.00
2023-03-29T04:20:15.453Z,661.00
2023-03-29T04:20:45.558Z,661.00
2023-03-29T04:21:15.675Z,661.00
2023-03-29T04:21:45.793Z,660.00
2023-03-29T04:22:15.922Z,660.00
2023-03-29T04:22:46.047Z,657.00
2023-03-29T04:23:16.048Z,653.00
2023-03-29T04:23:46.145Z,650.00
2023-03-29T04:24:16.270Z,650.00
2023-03-29T04:24:46.256Z,648.00
2023-03-29T04:25:16.386Z,645.00
2023-03-29T04:25:46.492Z,643.00
2023-03-29T04:26:16.605Z,640.00
2023-03-29T04:26:46.613Z,637.00
2023-03-29T04:27:16.760Z,637.00
2023-03-29T04:27:46.858Z,637.00
2023-03-29T04:28:16.857Z,638.00
2023-03-29T04:29:16.920Z,636.00
2023-03-29T04:29:46.914Z,635.00
2023-03-29T04:30:17.033Z,636.00
2023-03-29T04:30:47.348Z,638.00
2023-03-29T04:31:17.298Z,638.00
2023-03-29T04:31:47.385Z,639.00
2023-03-29T04:32:17.416Z,644.00
2023-03-29T04:32:47.428Z,651.00
2023-03-29T04:33:17.524Z,651.00
2023-03-29T04:33:47.571Z,654.00
2023-03-29T04:34:17.533Z,657.00
2023-03-29T04:36:31.888Z,592.00
2023-03-29T04:37:01.955Z,628.00
2023-03-29T04:37:32.035Z,641.00
2023-03-29T04:38:02.116Z,647.00
2023-03-29T04:38:32.193Z,650.00
2023-03-29T04:39:02.274Z,652.00
2023-03-29T04:39:32.355Z,650.00
2023-03-29T04:40:02.466Z,648.00
2023-03-29T04:40:32.569Z,646.00
2023-03-29T04:41:02.825Z,643.00
2023-03-29T04:41:32.705Z,643.00
2023-03-29T04:42:02.792Z,642.00
2023-03-29T04:42:32.937Z,642.00
2023-03-29T04:43:02.868Z,643.00
2023-03-29T04:43:32.948Z,644.00
2023-03-29T04:44:03.041Z,644.00
2023-03-29T04:44:33.211Z,648.00
2023-03-29T04:45:03.231Z,650.00
2023-03-29T04:45:33.195Z,652.00
2023-03-29T04:46:03.307Z,654.00
2023-03-29T04:46:33.390Z,655.00
2023-03-29T04:47:03.401Z,655.00
2023-03-29T04:47:33.425Z,653.00
2023-03-29T04:48:03.481Z,653.00
2023-03-29T04:48:33.481Z,652.00
2023-03-29T04:49:03.590Z,656.00
2023-03-29T04:49:33.607Z,658.00
2023-03-29T04:50:33.662Z,662.00
2023-03-29T04:51:03.924Z,663.00
2023-03-29T04:51:33.825Z,665.00
2023-03-29T04:52:03.945Z,669.00
2023-03-29T04:52:33.941Z,670.00
2023-03-29T04:53:04.077Z,673.00
2023-03-29T04:53:34.053Z,674.00
2023-03-29T04:54:34.122Z,676.00
2023-03-29T04:55:04.118Z,677.00
2023-03-29T04:56:04.219Z,686.00
2023-03-29T04:56:34.220Z,688.00
2023-03-29T04:57:04.289Z,689.00
2023-03-29T04:57:34.317Z,690.00
2023-03-29T04:58:04.325Z,690.00
2023-03-29T04:58:34.346Z,689.00
2023-03-29T04:59:04.465Z,687.00
2023-03-29T04:59:34.592Z,684.00
2023-03-29T05:00:04.592Z,682.00
2023-03-29T05:00:34.591Z,680.00
2023-03-29T05:01:04.781Z,677.00
2023-03-29T05:01:34.651Z,677.00
2023-03-29T05:02:04.743Z,675.00
2023-03-29T05:02:34.781Z,675.00
2023-03-29T05:03:04.842Z,677.00
2023-03-29T05:03:34.856Z,679.00
2023-03-29T05:04:05.067Z,679.00
2023-03-29T05:04:35.076Z,681.00
2023-03-29T05:05:05.097Z,684.00
2023-03-29T05:05:35.075Z,683.00
2023-03-29T05:06:05.195Z,680.00
2023-03-29T05:06:35.192Z,679.00
2023-03-29T05:07:05.310Z,678.00
2023-03-29T05:07:35.300Z,676.00
2023-03-29T05:08:05.439Z,674.00
2023-03-29T05:08:35.430Z,674.00
2023-03-29T05:09:05.543Z,672.00
2023-03-29T05:09:35.737Z,671.00
2023-03-29T05:10:05.708Z,671.00
2023-03-29T05:10:35.822Z,671.00
2023-03-29T05:11:05.938Z,671.00
2023-03-29T05:11:35.930Z,668.00
2023-03-29T05:12:06.066Z,668.00
2023-03-29T05:12:36.085Z,666.00
2023-03-29T05:13:06.125Z,666.00
2023-03-29T05:13:36.114Z,666.00
2023-03-29T05:14:36.228Z,670.00
2023-03-29T05:15:06.358Z,670.00
2023-03-29T05:15:36.360Z,671.00
2023-03-29T05:16:06.493Z,672.00
2023-03-29T05:16:36.519Z,670.00
2023-03-29T05:17:06.565Z,670.00
2023-03-29T05:17:36.578Z,671.00
2023-03-29T05:18:06.692Z,672.00
2023-03-29T05:18:36.661Z,672.00
2023-03-29T05:19:06.781Z,673.00
2023-03-29T05:19:36.905Z,676.00
2023-03-29T05:20:06.885Z,677.00
2023-03-29T05:21:06.961Z,676.00
2023-03-29T05:21:36.975Z,678.00
2023-03-29T05:22:06.965Z,681.00
2023-03-29T05:22:37.079Z,685.00
2023-03-29T05:23:07.202Z,689.00
2023-03-29T05:23:37.220Z,691.00
2023-03-29T05:24:07.345Z,693.00
2023-03-29T05:24:37.513Z,690.00
2023-03-29T05:25:07.517Z,688.00
2023-03-29T05:25:37.636Z,686.00
2023-03-29T05:26:07.752Z,687.00
2023-03-29T05:26:37.884Z,688.00
2023-03-29T05:27:07.868Z,688.00
2023-03-29T05:27:37.987Z,686.00
2023-03-29T05:28:08.098Z,684.00
2023-03-29T05:28:38.173Z,681.00
2023-03-29T05:29:08.149Z,681.00
2023-03-29T05:29:38.271Z,681.00
2023-03-29T05:30:08.378Z,679.00
2023-03-29T05:30:38.498Z,676.00
2023-03-29T05:31:08.719Z,676.00
2023-03-29T05:31:38.659Z,672.00
2023-03-29T05:32:08.867Z,671.00
2023-03-29T05:32:38.852Z,672.00
2023-03-29T05:33:08.920Z,672.00
2023-03-29T05:33:38.894Z,672.00
2023-03-29T05:34:08.885Z,671.00
2023-03-29T05:34:39.002Z,674.00
2023-03-29T05:35:09.117Z,676.00
2023-03-29T05:35:39.265Z,671.00
2023-03-29T05:36:09.275Z,667.00
2023-03-29T05:36:39.364Z,668.00
2023-03-29T05:37:09.453Z,670.00
2023-03-29T05:37:39.533Z,669.00
2023-03-29T05:38:09.619Z,671.00
2023-03-29T05:38:39.698Z,671.00
2023-03-29T05:39:09.789Z,674.00
2023-03-29T05:39:39.864Z,677.00
2023-03-29T05:40:09.947Z,679.00
2023-03-29T05:40:40.035Z,683.00
2023-03-29T05:41:10.118Z,684.00
2023-03-29T05:41:40.194Z,686.00
2023-03-29T05:42:10.276Z,688.00
2023-03-29T05:42:40.360Z,689.00
2023-03-29T05:43:10.435Z,691.00
2023-03-29T05:43:40.543Z,690.00
2023-03-29T05:44:10.596Z,690.00
2023-03-29T05:44:40.678Z,690.00
2023-03-29T05:45:10.745Z,688.00
2023-03-29T05:45:40.855Z,689.00
2023-03-29T05:46:10.880Z,687.00
2023-03-29T05:46:40.874Z,685.00
2023-03-29T05:47:11.039Z,685.00
2023-03-29T05:47:41.101Z,684.00
2023-03-29T05:48:11.159Z,684.00
2023-03-29T05:48:41.150Z,687.00
2023-03-29T05:49:11.273Z,686.00
2023-03-29T05:49:41.282Z,686.00
2023-03-29T05:50:11.449Z,689.00
2023-03-29T05:50:43.244Z,689.00
2023-03-29T05:51:11.514Z,689.00
2023-03-29T05:51:41.647Z,689.00
2023-03-29T05:52:11.661Z,690.00
2023-03-29T05:52:41.673Z,691.00
2023-03-29T05:53:11.697Z,688.00
2023-03-29T05:53:41.718Z,686.00
2023-03-29T05:54:11.707Z,686.00
2023-03-29T05:54:41.711Z,690.00
2023-03-29T05:55:11.842Z,689.00
2023-03-29T05:55:41.842Z,690.00
2023-03-29T05:56:11.964Z,689.00
2023-03-29T05:56:42.014Z,689.00
2023-03-29T05:57:12.068Z,691.00
2023-03-29T05:57:42.102Z,692.00
2023-03-29T05:58:12.222Z,690.00
2023-03-29T05:58:42.354Z,689.00
2023-03-29T05:59:12.385Z,691.00
2023-03-29T05:59:42.376Z,692.00
2023-03-29T06:00:12.493Z,694.00
2023-03-29T06:00:42.612Z,696.00
2023-03-29T06:01:12.623Z,698.00
2023-03-29T06:01:42.738Z,699.00
2023-03-29T06:02:12.881Z,700.00
2023-03-29T06:02:42.937Z,700.00
2023-03-29T06:03:20.241Z,702.00
2023-03-29T06:03:43.038Z,702.00
2023-03-29T06:04:13.007Z,706.00
2023-03-29T06:04:43.066Z,706.00
2023-03-29T06:05:13.116Z,708.00
2023-03-29T06:05:43.228Z,710.00
2023-03-29T06:06:13.225Z,712.00
2023-03-29T06:07:13.304Z,710.00
2023-03-29T06:07:43.301Z,708.00
2023-03-29T06:08:43.385Z,705.00
2023-03-29T06:09:13.410Z,702.00
2023-03-29T06:09:43.376Z,707.00
2023-03-29T06:10:13.503Z,689.00
2023-03-29T06:10:43.500Z,678.00
2023-03-29T06:11:13.608Z,674.00
2023-03-29T06:11:43.739Z,673.00
2023-03-29T06:12:13.751Z,675.00
2023-03-29T06:12:43.797Z,678.00
2023-03-29T06:13:13.889Z,682.00
2023-03-29T06:13:43.901Z,681.00
2023-03-29T06:14:13.940Z,682.00
2023-03-29T06:14:43.928Z,682.00
2023-03-29T06:15:43.944Z,685.00
2023-03-29T06:16:14.072Z,690.00
2023-03-29T06:16:44.202Z,690.00
2023-03-29T06:17:14.259Z,691.00
2023-03-29T06:17:44.372Z,694.00
2023-03-29T06:18:14.367Z,696.00
2023-03-29T06:18:44.483Z,698.00
2023-03-29T06:19:14.483Z,699.00
2023-03-29T06:19:44.639Z,702.00
2023-03-29T06:20:14.726Z,704.00
2023-03-29T06:20:44.833Z,707.00
2023-03-29T06:21:14.952Z,709.00
2023-03-29T06:21:44.959Z,709.00
2023-03-29T06:22:15.132Z,703.00
2023-03-29T06:22:45.114Z,700.00
2023-03-29T06:23:15.113Z,698.00
2023-03-29T06:23:45.246Z,691.00
2023-03-29T06:24:15.323Z,688.00
2023-03-29T06:24:45.324Z,685.00
2023-03-29T06:25:15.451Z,682.00
2023-03-29T06:25:45.558Z,682.00
2023-03-29T06:26:15.670Z,683.00
2023-03-29T06:26:45.663Z,682.00
2023-03-29T06:27:15.785Z,682.00
2023-03-29T06:27:45.900Z,684.00
2023-03-29T06:28:15.898Z,685.00
2023-03-29T06:28:45.912Z,687.00
2023-03-29T06:29:15.969Z,689.00
2023-03-29T06:29:45.929Z,689.00
2023-03-29T06:30:15.950Z,690.00
2023-03-29T06:30:46.095Z,693.00
2023-03-29T06:31:16.208Z,693.00
2023-03-29T06:31:46.372Z,692.00
2023-03-29T06:32:16.295Z,694.00
2023-03-29T06:32:46.462Z,697.00
2023-03-29T06:33:16.445Z,698.00
2023-03-29T06:33:46.439Z,700.00
2023-03-29T06:34:16.551Z,699.00
2023-03-29T06:34:46.695Z,699.00
2023-03-29T06:35:16.673Z,702.00
2023-03-29T06:35:46.682Z,700.00
2023-03-29T06:36:16.880Z,700.00
2023-03-29T06:36:46.843Z,701.00
2023-03-29T06:37:16.932Z,703.00
2023-03-29T06:37:47.016Z,706.00
2023-03-29T06:38:17.103Z,707.00
2023-03-29T06:38:47.199Z,710.00
2023-03-29T06:39:17.290Z,712.00
2023-03-29T06:39:47.367Z,711.00
2023-03-29T06:40:17.473Z,713.00
2023-03-29T06:40:47.541Z,713.00
2023-03-29T06:41:17.623Z,711.00
2023-03-29T06:41:47.703Z,711.00
2023-03-29T06:42:21.525Z,710.00
2023-03-29T06:42:47.839Z,709.00
2023-03-29T06:43:17.916Z,708.00